sensor_id;sensor_type;location;lat;lon;timestamp;temperature;humidity
12720;DHT22;6424;48.520;11.228;2022-07-12T00:02:26;14.30;99.90
12720;DHT22;6424;48.520;11.228;2022-07-12T00:05:07;14.30;99.90
12720;DHT22;6424;48.520;11.228;2022-07-12T00:07:48;14.30;99.90
12720;DHT22;6424;48.520;11.228;2022-07-12T00:10:29;14.20;99.90
12720;DHT22;6424;48.520;11.228;2022-07-12T00:12:55;14.20;99.90
12720;DHT22;6424;48.520;11.228;2022-07-12T00:15:36;14.20;99.90
12720;DHT22;6424;48.520;11.228;2022-07-12T00:18:16;14.20;99.90
12720;DHT22;6424;48.520;11.228;2022-07-12T00:20:57;14.20;99.90
12720;DHT22;6424;48.520;11.228;2022-07-12T00:23:38;14.10;99.90
12720;DHT22;6424;48.520;11.228;2022-07-12T00:26:19;14.10;99.90
12720;DHT22;6424;48.520;11.228;2022-07-12T00:29:00;14.10;99.90
12720;DHT22;6424;48.520;11.228;2022-07-12T00:31:41;14.10;99.90
12720;DHT22;6424;48.520;11.228;2022-07-12T00:34:21;14.00;99.90
12720;DHT22;6424;48.520;11.228;2022-07-12T00:37:02;14.00;99.90
12720;DHT22;6424;48.520;11.228;2022-07-12T00:39:43;13.90;99.90
12720;DHT22;6424;48.520;11.228;2022-07-12T00:42:25;14.00;99.90
12720;DHT22;6424;48.520;11.228;2022-07-12T00:45:07;13.90;99.90
12720;DHT22;6424;48.520;11.228;2022-07-12T00:47:50;13.90;99.90
12720;DHT22;6424;48.520;11.228;2022-07-12T00:50:31;13.90;99.90
12720;DHT22;6424;48.520;11.228;2022-07-12T00:53:13;13.80;99.90
12720;DHT22;6424;48.520;11.228;2022-07-12T00:55:58;13.80;99.90
12720;DHT22;6424;48.520;11.228;2022-07-12T00:58:40;13.70;99.90
12720;DHT22;6424;48.520;11.228;2022-07-12T01:01:21;13.70;99.90
12720;DHT22;6424;48.520;11.228;2022-07-12T01:04:04;13.60;99.90
12720;DHT22;6424;48.520;11.228;2022-07-12T01:06:45;13.60;99.90
12720;DHT22;6424;48.520;11.228;2022-07-12T01:09:26;13.60;99.90
12720;DHT22;6424;48.520;11.228;2022-07-12T01:12:07;13.50;99.90
12720;DHT22;6424;48.520;11.228;2022-07-12T01:14:49;13.50;99.90
12720;DHT22;6424;48.520;11.228;2022-07-12T01:17:30;13.50;99.90
12720;DHT22;6424;48.520;11.228;2022-07-12T01:20:11;13.50;99.90
12720;DHT22;6424;48.520;11.228;2022-07-12T01:22:54;13.40;99.90
12720;DHT22;6424;48.520;11.228;2022-07-12T01:25:23;13.40;99.90
12720;DHT22;6424;48.520;11.228;2022-07-12T01:28:04;13.30;99.90
12720;DHT22;6424;48.520;11.228;2022-07-12T01:30:44;13.30;99.90
12720;DHT22;6424;48.520;11.228;2022-07-12T01:33:26;13.30;99.90
12720;DHT22;6424;48.520;11.228;2022-07-12T01:36:08;13.30;99.90
12720;DHT22;6424;48.520;11.228;2022-07-12T01:38:49;13.30;99.90
12720;DHT22;6424;48.520;11.228;2022-07-12T01:41:31;13.30;99.90
12720;DHT22;6424;48.520;11.228;2022-07-12T01:44:12;13.30;99.90
12720;DHT22;6424;48.520;11.228;2022-07-12T01:46:53;13.20;99.90
12720;DHT22;6424;48.520;11.228;2022-07-12T01:49:34;13.20;99.90
12720;DHT22;6424;48.520;11.228;2022-07-12T01:52:15;13.20;99.90
12720;DHT22;6424;48.520;11.228;2022-07-12T01:54:57;13.10;99.90
12720;DHT22;6424;48.520;11.228;2022-07-12T01:57:41;13.10;99.90
12720;DHT22;6424;48.520;11.228;2022-07-12T02:00:23;13.10;99.90
12720;DHT22;6424;48.520;11.228;2022-07-12T02:02:49;13.00;99.90
12720;DHT22;6424;48.520;11.228;2022-07-12T02:05:29;13.00;99.90
12720;DHT22;6424;48.520;11.228;2022-07-12T02:08:11;13.00;99.90
12720;DHT22;6424;48.520;11.228;2022-07-12T02:10:52;12.90;99.90
12720;DHT22;6424;48.520;11.228;2022-07-12T02:13:33;12.80;99.90
12720;DHT22;6424;48.520;11.228;2022-07-12T02:16:14;12.70;99.90
12720;DHT22;6424;48.520;11.228;2022-07-12T02:18:55;12.70;99.90
12720;DHT22;6424;48.520;11.228;2022-07-12T02:21:36;12.60;99.90
12720;DHT22;6424;48.520;11.228;2022-07-12T02:24:17;12.60;99.90
12720;DHT22;6424;48.520;11.228;2022-07-12T02:26:58;12.60;99.90
12720;DHT22;6424;48.520;11.228;2022-07-12T02:29:39;12.50;99.90
12720;DHT22;6424;48.520;11.228;2022-07-12T02:32:22;12.50;99.90
12720;DHT22;6424;48.520;11.228;2022-07-12T02:34:48;12.50;99.90
12720;DHT22;6424;48.520;11.228;2022-07-12T02:37:28;12.50;99.90
12720;DHT22;6424;48.520;11.228;2022-07-12T02:40:09;12.60;99.90
12720;DHT22;6424;48.520;11.228;2022-07-12T02:43:08;12.70;99.90
12720;DHT22;6424;48.520;11.228;2022-07-12T02:45:50;12.80;99.90
12720;DHT22;6424;48.520;11.228;2022-07-12T02:48:31;12.80;99.90
12720;DHT22;6424;48.520;11.228;2022-07-12T02:51:12;12.90;99.90
12720;DHT22;6424;48.520;11.228;2022-07-12T02:53:53;12.90;99.90
12720;DHT22;6424;48.520;11.228;2022-07-12T02:56:34;13.00;99.90
12720;DHT22;6424;48.520;11.228;2022-07-12T02:59:15;13.00;99.90
12720;DHT22;6424;48.520;11.228;2022-07-12T03:01:56;13.10;99.90
12720;DHT22;6424;48.520;11.228;2022-07-12T03:04:38;13.20;99.90
12720;DHT22;6424;48.520;11.228;2022-07-12T03:07:19;13.20;99.90
12720;DHT22;6424;48.520;11.228;2022-07-12T03:09:44;13.20;99.90
12720;DHT22;6424;48.520;11.228;2022-07-12T03:12:25;13.30;99.90
12720;DHT22;6424;48.520;11.228;2022-07-12T03:15:06;13.30;99.90
12720;DHT22;6424;48.520;11.228;2022-07-12T03:17:47;13.30;99.90
12720;DHT22;6424;48.520;11.228;2022-07-12T03:20:31;13.30;99.90
12720;DHT22;6424;48.520;11.228;2022-07-12T03:23:12;13.30;99.90
12720;DHT22;6424;48.520;11.228;2022-07-12T03:25:52;13.40;99.90
12720;DHT22;6424;48.520;11.228;2022-07-12T03:28:33;13.50;99.90
12720;DHT22;6424;48.520;11.228;2022-07-12T03:31:14;13.50;99.90
12720;DHT22;6424;48.520;11.228;2022-07-12T03:33:55;13.50;99.90
12720;DHT22;6424;48.520;11.228;2022-07-12T03:36:36;13.50;99.90
12720;DHT22;6424;48.520;11.228;2022-07-12T03:39:16;13.60;99.90
12720;DHT22;6424;48.520;11.228;2022-07-12T03:41:57;13.60;99.90
12720;DHT22;6424;48.520;11.228;2022-07-12T03:44:38;13.60;99.90
12720;DHT22;6424;48.520;11.228;2022-07-12T03:47:19;13.60;99.90
12720;DHT22;6424;48.520;11.228;2022-07-12T03:50:00;13.70;99.90
12720;DHT22;6424;48.520;11.228;2022-07-12T03:52:43;13.70;99.90
12720;DHT22;6424;48.520;11.228;2022-07-12T03:55:11;13.70;99.90
12720;DHT22;6424;48.520;11.228;2022-07-12T03:57:52;13.80;99.90
12720;DHT22;6424;48.520;11.228;2022-07-12T04:00:32;13.90;99.90
12720;DHT22;6424;48.520;11.228;2022-07-12T04:03:13;13.90;99.90
12720;DHT22;6424;48.520;11.228;2022-07-12T04:05:54;14.00;99.90
12720;DHT22;6424;48.520;11.228;2022-07-12T04:08:35;14.10;99.90
12720;DHT22;6424;48.520;11.228;2022-07-12T04:11:16;14.20;99.90
12720;DHT22;6424;48.520;11.228;2022-07-12T04:13:56;14.30;99.90
12720;DHT22;6424;48.520;11.228;2022-07-12T04:16:37;14.50;99.90
12720;DHT22;6424;48.520;11.228;2022-07-12T04:19:03;14.80;99.90
12720;DHT22;6424;48.520;11.228;2022-07-12T04:21:46;15.50;99.90
12720;DHT22;6424;48.520;11.228;2022-07-12T04:24:26;16.60;99.90
12720;DHT22;6424;48.520;11.228;2022-07-12T04:27:07;17.50;99.90
12720;DHT22;6424;48.520;11.228;2022-07-12T04:29:48;18.20;99.90
12720;DHT22;6424;48.520;11.228;2022-07-12T04:32:29;19.00;99.90
12720;DHT22;6424;48.520;11.228;2022-07-12T04:35:10;19.70;99.90
12720;DHT22;6424;48.520;11.228;2022-07-12T04:37:51;20.60;99.90
12720;DHT22;6424;48.520;11.228;2022-07-12T04:40:31;21.30;99.90
12720;DHT22;6424;48.520;11.228;2022-07-12T04:43:12;22.00;99.90
12720;DHT22;6424;48.520;11.228;2022-07-12T04:45:53;22.40;99.90
12720;DHT22;6424;48.520;11.228;2022-07-12T04:48:34;22.30;99.90
12720;DHT22;6424;48.520;11.228;2022-07-12T04:51:15;22.40;99.90
12720;DHT22;6424;48.520;11.228;2022-07-12T04:53:57;22.60;99.90
12720;DHT22;6424;48.520;11.228;2022-07-12T04:56:38;22.20;99.90
12720;DHT22;6424;48.520;11.228;2022-07-12T04:59:03;21.50;99.90
12720;DHT22;6424;48.520;11.228;2022-07-12T05:01:44;20.80;99.90
12720;DHT22;6424;48.520;11.228;2022-07-12T05:04:26;19.60;99.90
12720;DHT22;6424;48.520;11.228;2022-07-12T05:07:06;18.60;99.90
12720;DHT22;6424;48.520;11.228;2022-07-12T05:09:47;17.80;99.90
12720;DHT22;6424;48.520;11.228;2022-07-12T05:12:13;17.30;99.90
12720;DHT22;6424;48.520;11.228;2022-07-12T05:14:54;17.00;99.90
12720;DHT22;6424;48.520;11.228;2022-07-12T05:17:34;16.90;99.90
12720;DHT22;6424;48.520;11.228;2022-07-12T05:20:15;16.80;99.90
12720;DHT22;6424;48.520;11.228;2022-07-12T05:22:56;16.70;99.90
12720;DHT22;6424;48.520;11.228;2022-07-12T05:25:37;16.60;99.90
12720;DHT22;6424;48.520;11.228;2022-07-12T05:28:18;16.60;99.90
12720;DHT22;6424;48.520;11.228;2022-07-12T05:30:59;16.50;99.90
12720;DHT22;6424;48.520;11.228;2022-07-12T05:33:39;16.50;99.90
12720;DHT22;6424;48.520;11.228;2022-07-12T05:36:21;16.50;99.90
12720;DHT22;6424;48.520;11.228;2022-07-12T05:39:02;16.50;99.90
12720;DHT22;6424;48.520;11.228;2022-07-12T05:41:43;16.50;99.90
12720;DHT22;6424;48.520;11.228;2022-07-12T05:44:23;16.50;99.90
12720;DHT22;6424;48.520;11.228;2022-07-12T05:47:04;16.50;99.90
12720;DHT22;6424;48.520;11.228;2022-07-12T05:49:45;16.50;99.90
12720;DHT22;6424;48.520;11.228;2022-07-12T05:52:26;16.60;99.90
12720;DHT22;6424;48.520;11.228;2022-07-12T05:55:10;16.60;99.90
12720;DHT22;6424;48.520;11.228;2022-07-12T05:57:51;16.70;99.90
12720;DHT22;6424;48.520;11.228;2022-07-12T06:00:31;16.70;99.90
12720;DHT22;6424;48.520;11.228;2022-07-12T06:03:14;16.90;99.90
12720;DHT22;6424;48.520;11.228;2022-07-12T06:05:54;17.30;99.90
12720;DHT22;6424;48.520;11.228;2022-07-12T06:08:35;17.70;99.90
12720;DHT22;6424;48.520;11.228;2022-07-12T06:11:16;18.00;99.90
12720;DHT22;6424;48.520;11.228;2022-07-12T06:13:57;18.30;99.90
12720;DHT22;6424;48.520;11.228;2022-07-12T06:16:37;18.50;99.90
12720;DHT22;6424;48.520;11.228;2022-07-12T06:19:03;18.70;99.90
12720;DHT22;6424;48.520;11.228;2022-07-12T06:21:44;18.90;99.90
12720;DHT22;6424;48.520;11.228;2022-07-12T06:24:25;19.00;99.90
12720;DHT22;6424;48.520;11.228;2022-07-12T06:27:05;19.10;99.90
12720;DHT22;6424;48.520;11.228;2022-07-12T06:29:46;19.40;99.90
12720;DHT22;6424;48.520;11.228;2022-07-12T06:32:28;20.00;99.90
12720;DHT22;6424;48.520;11.228;2022-07-12T06:35:09;20.70;99.90
12720;DHT22;6424;48.520;11.228;2022-07-12T06:37:50;21.10;99.90
12720;DHT22;6424;48.520;11.228;2022-07-12T06:40:31;21.30;99.90
12720;DHT22;6424;48.520;11.228;2022-07-12T06:42:57;21.50;99.90
12720;DHT22;6424;48.520;11.228;2022-07-12T06:45:37;21.60;99.90
12720;DHT22;6424;48.520;11.228;2022-07-12T06:48:04;21.80;99.90
12720;DHT22;6424;48.520;11.228;2022-07-12T06:50:45;22.20;99.90
12720;DHT22;6424;48.520;11.228;2022-07-12T06:53:12;22.60;99.90
12720;DHT22;6424;48.520;11.228;2022-07-12T06:55:52;22.80;99.90
12720;DHT22;6424;48.520;11.228;2022-07-12T06:58:18;23.10;99.90
12720;DHT22;6424;48.520;11.228;2022-07-12T07:00:59;23.00;99.90
12720;DHT22;6424;48.520;11.228;2022-07-12T07:03:40;23.00;99.90
12720;DHT22;6424;48.520;11.228;2022-07-12T07:06:21;22.70;99.90
12720;DHT22;6424;48.520;11.228;2022-07-12T07:09:02;22.60;99.90
12720;DHT22;6424;48.520;11.228;2022-07-12T07:11:43;22.50;99.90
12720;DHT22;6424;48.520;11.228;2022-07-12T07:14:23;22.50;99.90
12720;DHT22;6424;48.520;11.228;2022-07-12T07:17:04;22.50;99.90
12720;DHT22;6424;48.520;11.228;2022-07-12T07:19:46;22.60;99.90
12720;DHT22;6424;48.520;11.228;2022-07-12T07:22:26;22.70;99.90
12720;DHT22;6424;48.520;11.228;2022-07-12T07:25:08;22.90;99.90
12720;DHT22;6424;48.520;11.228;2022-07-12T07:27:49;23.10;99.90
12720;DHT22;6424;48.520;11.228;2022-07-12T07:30:30;23.20;99.90
12720;DHT22;6424;48.520;11.228;2022-07-12T07:33:29;23.20;99.90
12720;DHT22;6424;48.520;11.228;2022-07-12T07:36:10;23.10;99.90
12720;DHT22;6424;48.520;11.228;2022-07-12T07:38:50;22.80;99.90
12720;DHT22;6424;48.520;11.228;2022-07-12T07:41:16;22.20;99.90
12720;DHT22;6424;48.520;11.228;2022-07-12T07:43:57;21.90;99.90
12720;DHT22;6424;48.520;11.228;2022-07-12T07:46:38;21.80;99.90
12720;DHT22;6424;48.520;11.228;2022-07-12T07:49:19;21.70;99.90
12720;DHT22;6424;48.520;11.228;2022-07-12T07:51:59;21.70;99.90
12720;DHT22;6424;48.520;11.228;2022-07-12T07:54:40;21.90;99.90
12720;DHT22;6424;48.520;11.228;2022-07-12T07:57:21;22.20;99.90
12720;DHT22;6424;48.520;11.228;2022-07-12T08:00:03;22.60;98.20
12720;DHT22;6424;48.520;11.228;2022-07-12T08:02:44;22.60;94.40
12720;DHT22;6424;48.520;11.228;2022-07-12T08:05:24;22.40;93.00
12720;DHT22;6424;48.520;11.228;2022-07-12T08:08:05;22.10;95.10
12720;DHT22;6424;48.520;11.228;2022-07-12T08:10:51;21.60;95.20
12720;DHT22;6424;48.520;11.228;2022-07-12T08:13:32;21.70;95.70
12720;DHT22;6424;48.520;11.228;2022-07-12T08:16:13;21.80;95.90
12720;DHT22;6424;48.520;11.228;2022-07-12T08:18:53;21.80;94.90
12720;DHT22;6424;48.520;11.228;2022-07-12T08:21:34;21.80;95.20
12720;DHT22;6424;48.520;11.228;2022-07-12T08:24:15;22.00;95.00
12720;DHT22;6424;48.520;11.228;2022-07-12T08:26:56;22.30;95.90
12720;DHT22;6424;48.520;11.228;2022-07-12T08:29:37;22.60;94.60
12720;DHT22;6424;48.520;11.228;2022-07-12T08:32:18;22.90;92.90
12720;DHT22;6424;48.520;11.228;2022-07-12T08:34:59;23.30;93.60
12720;DHT22;6424;48.520;11.228;2022-07-12T08:37:40;23.50;93.60
12720;DHT22;6424;48.520;11.228;2022-07-12T08:40:21;23.60;90.40
12720;DHT22;6424;48.520;11.228;2022-07-12T08:43:02;23.20;90.40
12720;DHT22;6424;48.520;11.228;2022-07-12T08:45:43;23.10;90.00
12720;DHT22;6424;48.520;11.228;2022-07-12T08:48:24;22.50;91.40
12720;DHT22;6424;48.520;11.228;2022-07-12T08:51:08;22.70;90.40
12720;DHT22;6424;48.520;11.228;2022-07-12T08:54:11;22.90;88.80
12720;DHT22;6424;48.520;11.228;2022-07-12T08:56:43;23.20;86.40
12720;DHT22;6424;48.520;11.228;2022-07-12T08:59:24;23.50;82.80
12720;DHT22;6424;48.520;11.228;2022-07-12T09:02:05;23.70;83.00
12720;DHT22;6424;48.520;11.228;2022-07-12T09:04:45;23.60;83.10
12720;DHT22;6424;48.520;11.228;2022-07-12T09:07:26;23.40;84.80
12720;DHT22;6424;48.520;11.228;2022-07-12T09:10:08;23.60;88.40
12720;DHT22;6424;48.520;11.228;2022-07-12T09:12:50;24.00;83.20
12720;DHT22;6424;48.520;11.228;2022-07-12T09:15:30;24.30;81.30
12720;DHT22;6424;48.520;11.228;2022-07-12T09:18:11;24.40;80.50
12720;DHT22;6424;48.520;11.228;2022-07-12T09:20:56;24.40;79.30
12720;DHT22;6424;48.520;11.228;2022-07-12T09:23:51;24.60;84.90
12720;DHT22;6424;48.520;11.228;2022-07-12T09:26:32;24.90;79.60
12720;DHT22;6424;48.520;11.228;2022-07-12T09:29:14;24.80;77.70
12720;DHT22;6424;48.520;11.228;2022-07-12T09:31:55;24.20;77.20
12720;DHT22;6424;48.520;11.228;2022-07-12T09:34:58;23.90;77.60
12720;DHT22;6424;48.520;11.228;2022-07-12T09:38:08;23.30;77.80
12720;DHT22;6424;48.520;11.228;2022-07-12T09:40:50;22.80;82.70
12720;DHT22;6424;48.520;11.228;2022-07-12T09:43:31;22.50;82.80
12720;DHT22;6424;48.520;11.228;2022-07-12T09:46:14;22.30;84.40
12720;DHT22;6424;48.520;11.228;2022-07-12T09:48:55;22.30;85.10
12720;DHT22;6424;48.520;11.228;2022-07-12T09:51:37;22.50;87.10
12720;DHT22;6424;48.520;11.228;2022-07-12T09:54:26;23.00;82.40
12720;DHT22;6424;48.520;11.228;2022-07-12T10:00:04;23.50;80.10
12720;DHT22;6424;48.520;11.228;2022-07-12T10:02:50;24.00;78.40
12720;DHT22;6424;48.520;11.228;2022-07-12T10:05:34;24.20;74.50
12720;DHT22;6424;48.520;11.228;2022-07-12T10:08:15;24.00;74.40
12720;DHT22;6424;48.520;11.228;2022-07-12T10:10:57;23.60;76.80
12720;DHT22;6424;48.520;11.228;2022-07-12T10:13:38;23.20;75.10
12720;DHT22;6424;48.520;11.228;2022-07-12T10:16:25;23.00;75.90
12720;DHT22;6424;48.520;11.228;2022-07-12T10:22:18;23.70;80.30
12720;DHT22;6424;48.520;11.228;2022-07-12T10:25:01;24.20;77.50
12720;DHT22;6424;48.520;11.228;2022-07-12T10:27:41;24.60;74.60
12720;DHT22;6424;48.520;11.228;2022-07-12T10:30:23;24.80;73.30
12720;DHT22;6424;48.520;11.228;2022-07-12T10:33:18;24.80;71.10
12720;DHT22;6424;48.520;11.228;2022-07-12T10:36:01;24.70;69.30
12720;DHT22;6424;48.520;11.228;2022-07-12T10:38:42;24.80;72.00
12720;DHT22;6424;48.520;11.228;2022-07-12T10:41:22;24.70;70.80
12720;DHT22;6424;48.520;11.228;2022-07-12T10:44:04;24.60;69.60
12720;DHT22;6424;48.520;11.228;2022-07-12T10:47:01;24.40;71.80
12720;DHT22;6424;48.520;11.228;2022-07-12T10:49:48;24.40;70.60
12720;DHT22;6424;48.520;11.228;2022-07-12T10:52:29;24.70;72.10
12720;DHT22;6424;48.520;11.228;2022-07-12T10:55:16;25.00;69.90
12720;DHT22;6424;48.520;11.228;2022-07-12T10:57:58;25.10;68.80
12720;DHT22;6424;48.520;11.228;2022-07-12T11:00:39;25.00;70.90
12720;DHT22;6424;48.520;11.228;2022-07-12T11:03:19;24.60;70.10
12720;DHT22;6424;48.520;11.228;2022-07-12T11:06:04;24.30;69.20
12720;DHT22;6424;48.520;11.228;2022-07-12T11:08:59;23.80;70.60
12720;DHT22;6424;48.520;11.228;2022-07-12T11:11:42;23.60;72.00
12720;DHT22;6424;48.520;11.228;2022-07-12T11:14:26;23.70;69.30
12720;DHT22;6424;48.520;11.228;2022-07-12T11:17:07;23.70;69.80
12720;DHT22;6424;48.520;11.228;2022-07-12T11:19:48;23.80;71.20
12720;DHT22;6424;48.520;11.228;2022-07-12T11:22:29;24.10;72.10
12720;DHT22;6424;48.520;11.228;2022-07-12T11:25:11;24.50;71.60
12720;DHT22;6424;48.520;11.228;2022-07-12T11:27:53;24.90;70.80
12720;DHT22;6424;48.520;11.228;2022-07-12T11:30:33;25.40;70.10
12720;DHT22;6424;48.520;11.228;2022-07-12T11:33:14;25.50;65.10
12720;DHT22;6424;48.520;11.228;2022-07-12T11:35:43;25.60;68.10
12720;DHT22;6424;48.520;11.228;2022-07-12T11:38:25;25.60;63.60
12720;DHT22;6424;48.520;11.228;2022-07-12T11:41:07;25.40;65.00
12720;DHT22;6424;48.520;11.228;2022-07-12T11:43:48;25.50;64.30
12720;DHT22;6424;48.520;11.228;2022-07-12T11:46:29;25.60;65.40
12720;DHT22;6424;48.520;11.228;2022-07-12T11:49:15;25.90;68.40
12720;DHT22;6424;48.520;11.228;2022-07-12T11:51:56;26.20;66.20
12720;DHT22;6424;48.520;11.228;2022-07-12T11:54:36;26.30;61.20
12720;DHT22;6424;48.520;11.228;2022-07-12T11:57:22;26.10;62.20
12720;DHT22;6424;48.520;11.228;2022-07-12T12:00:20;25.90;62.60
12720;DHT22;6424;48.520;11.228;2022-07-12T12:03:01;25.60;62.20
12720;DHT22;6424;48.520;11.228;2022-07-12T12:05:43;25.30;62.80
12720;DHT22;6424;48.520;11.228;2022-07-12T12:08:25;25.30;65.30
12720;DHT22;6424;48.520;11.228;2022-07-12T12:11:06;25.30;64.20
12720;DHT22;6424;48.520;11.228;2022-07-12T12:13:55;25.40;63.10
12720;DHT22;6424;48.520;11.228;2022-07-12T12:16:36;25.30;62.90
12720;DHT22;6424;48.520;11.228;2022-07-12T12:19:17;25.00;65.20
12720;DHT22;6424;48.520;11.228;2022-07-12T12:21:58;25.10;64.60
12720;DHT22;6424;48.520;11.228;2022-07-12T12:24:24;25.10;63.30
12720;DHT22;6424;48.520;11.228;2022-07-12T12:27:05;25.30;64.10
12720;DHT22;6424;48.520;11.228;2022-07-12T12:29:45;25.00;64.30
12720;DHT22;6424;48.520;11.228;2022-07-12T12:32:26;25.00;64.60
12720;DHT22;6424;48.520;11.228;2022-07-12T12:35:11;25.30;65.30
12720;DHT22;6424;48.520;11.228;2022-07-12T12:37:55;25.50;64.70
12720;DHT22;6424;48.520;11.228;2022-07-12T12:40:36;25.80;64.50
12720;DHT22;6424;48.520;11.228;2022-07-12T12:43:29;25.90;61.30
12720;DHT22;6424;48.520;11.228;2022-07-12T12:46:10;25.90;61.10
12720;DHT22;6424;48.520;11.228;2022-07-12T12:48:51;25.70;59.90
12720;DHT22;6424;48.520;11.228;2022-07-12T12:51:31;25.30;61.40
12720;DHT22;6424;48.520;11.228;2022-07-12T12:54:13;25.20;59.40
12720;DHT22;6424;48.520;11.228;2022-07-12T12:56:54;25.30;59.60
12720;DHT22;6424;48.520;11.228;2022-07-12T12:59:19;25.30;59.80
12720;DHT22;6424;48.520;11.228;2022-07-12T13:01:45;25.50;63.00
12720;DHT22;6424;48.520;11.228;2022-07-12T13:04:28;25.60;61.10
12720;DHT22;6424;48.520;11.228;2022-07-12T13:07:09;25.60;59.30
12720;DHT22;6424;48.520;11.228;2022-07-12T13:09:50;25.60;59.60
12720;DHT22;6424;48.520;11.228;2022-07-12T13:12:31;25.80;59.90
12720;DHT22;6424;48.520;11.228;2022-07-12T13:15:12;25.60;59.50
12720;DHT22;6424;48.520;11.228;2022-07-12T13:17:53;25.30;59.10
12720;DHT22;6424;48.520;11.228;2022-07-12T13:20:34;25.10;59.50
12720;DHT22;6424;48.520;11.228;2022-07-12T13:23:15;25.10;59.90
12720;DHT22;6424;48.520;11.228;2022-07-12T13:25:55;25.10;59.40
12720;DHT22;6424;48.520;11.228;2022-07-12T13:28:36;25.20;61.00
12720;DHT22;6424;48.520;11.228;2022-07-12T13:31:17;25.30;59.80
12720;DHT22;6424;48.520;11.228;2022-07-12T13:33:58;25.30;59.80
12720;DHT22;6424;48.520;11.228;2022-07-12T13:36:38;25.30;60.90
12720;DHT22;6424;48.520;11.228;2022-07-12T13:39:19;25.40;59.80
12720;DHT22;6424;48.520;11.228;2022-07-12T13:42:19;25.40;59.60
12720;DHT22;6424;48.520;11.228;2022-07-12T13:44:59;25.20;60.40
12720;DHT22;6424;48.520;11.228;2022-07-12T13:47:42;24.90;60.40
12720;DHT22;6424;48.520;11.228;2022-07-12T13:50:23;25.00;59.50
12720;DHT22;6424;48.520;11.228;2022-07-12T13:53:04;25.10;59.30
12720;DHT22;6424;48.520;11.228;2022-07-12T13:55:46;25.20;59.00
12720;DHT22;6424;48.520;11.228;2022-07-12T13:58:27;25.40;59.50
12720;DHT22;6424;48.520;11.228;2022-07-12T14:01:07;25.70;58.80
12720;DHT22;6424;48.520;11.228;2022-07-12T14:03:48;25.70;58.20
12720;DHT22;6424;48.520;11.228;2022-07-12T14:06:29;25.80;58.80
12720;DHT22;6424;48.520;11.228;2022-07-12T14:09:11;26.00;59.40
12720;DHT22;6424;48.520;11.228;2022-07-12T14:11:51;26.00;57.50
12720;DHT22;6424;48.520;11.228;2022-07-12T14:14:34;26.00;58.30
12720;DHT22;6424;48.520;11.228;2022-07-12T14:17:33;26.10;57.80
12720;DHT22;6424;48.520;11.228;2022-07-12T14:20:18;26.10;57.50
12720;DHT22;6424;48.520;11.228;2022-07-12T14:23:00;26.20;58.40
12720;DHT22;6424;48.520;11.228;2022-07-12T14:25:40;26.30;58.90
12720;DHT22;6424;48.520;11.228;2022-07-12T14:28:21;26.40;55.80
12720;DHT22;6424;48.520;11.228;2022-07-12T14:30:47;26.40;55.30
12720;DHT22;6424;48.520;11.228;2022-07-12T14:33:28;26.40;57.00
12720;DHT22;6424;48.520;11.228;2022-07-12T14:35:55;26.40;56.10
12720;DHT22;6424;48.520;11.228;2022-07-12T14:38:35;26.40;56.20
12720;DHT22;6424;48.520;11.228;2022-07-12T14:41:16;26.20;57.40
12720;DHT22;6424;48.520;11.228;2022-07-12T14:43:57;26.10;58.30
12720;DHT22;6424;48.520;11.228;2022-07-12T14:46:38;26.20;57.20
12720;DHT22;6424;48.520;11.228;2022-07-12T14:49:22;26.20;56.70
12720;DHT22;6424;48.520;11.228;2022-07-12T14:52:04;26.20;58.30
12720;DHT22;6424;48.520;11.228;2022-07-12T14:54:46;26.20;56.60
12720;DHT22;6424;48.520;11.228;2022-07-12T14:57:28;26.20;56.70
12720;DHT22;6424;48.520;11.228;2022-07-12T15:00:09;26.30;57.70
12720;DHT22;6424;48.520;11.228;2022-07-12T15:02:51;26.40;56.50
12720;DHT22;6424;48.520;11.228;2022-07-12T15:05:32;26.50;57.10
12720;DHT22;6424;48.520;11.228;2022-07-12T15:07:58;26.50;57.90
12720;DHT22;6424;48.520;11.228;2022-07-12T15:10:38;26.60;57.70
12720;DHT22;6424;48.520;11.228;2022-07-12T15:13:19;26.60;56.70
12720;DHT22;6424;48.520;11.228;2022-07-12T15:15:46;26.40;56.50
12720;DHT22;6424;48.520;11.228;2022-07-12T15:18:28;26.50;56.90
12720;DHT22;6424;48.520;11.228;2022-07-12T15:21:08;26.60;57.40
12720;DHT22;6424;48.520;11.228;2022-07-12T15:23:49;26.30;56.60
12720;DHT22;6424;48.520;11.228;2022-07-12T15:26:30;26.10;58.00
12720;DHT22;6424;48.520;11.228;2022-07-12T15:29:01;26.20;57.60
12720;DHT22;6424;48.520;11.228;2022-07-12T15:31:43;26.20;56.60
12720;DHT22;6424;48.520;11.228;2022-07-12T15:34:25;26.30;57.40
12720;DHT22;6424;48.520;11.228;2022-07-12T15:37:06;26.40;57.20
12720;DHT22;6424;48.520;11.228;2022-07-12T15:39:46;26.40;56.20
12720;DHT22;6424;48.520;11.228;2022-07-12T15:42:27;26.40;56.00
12720;DHT22;6424;48.520;11.228;2022-07-12T15:45:09;26.30;56.30
12720;DHT22;6424;48.520;11.228;2022-07-12T15:47:36;26.30;56.10
12720;DHT22;6424;48.520;11.228;2022-07-12T15:50:17;26.30;56.30
12720;DHT22;6424;48.520;11.228;2022-07-12T15:52:57;26.20;55.10
12720;DHT22;6424;48.520;11.228;2022-07-12T15:56:04;26.20;55.40
12720;DHT22;6424;48.520;11.228;2022-07-12T15:58:45;26.10;55.10
12720;DHT22;6424;48.520;11.228;2022-07-12T16:01:26;26.10;56.30
12720;DHT22;6424;48.520;11.228;2022-07-12T16:04:08;26.10;56.80
12720;DHT22;6424;48.520;11.228;2022-07-12T16:06:49;26.20;54.50
12720;DHT22;6424;48.520;11.228;2022-07-12T16:09:32;26.10;53.80
12720;DHT22;6424;48.520;11.228;2022-07-12T16:11:57;25.90;54.00
12720;DHT22;6424;48.520;11.228;2022-07-12T16:14:38;25.80;53.90
12720;DHT22;6424;48.520;11.228;2022-07-12T16:17:20;25.70;54.10
12720;DHT22;6424;48.520;11.228;2022-07-12T16:20:01;25.60;54.40
12720;DHT22;6424;48.520;11.228;2022-07-12T16:22:42;25.50;54.80
12720;DHT22;6424;48.520;11.228;2022-07-12T16:25:23;25.40;55.30
12720;DHT22;6424;48.520;11.228;2022-07-12T16:28:04;25.30;55.30
12720;DHT22;6424;48.520;11.228;2022-07-12T16:30:45;25.30;55.60
12720;DHT22;6424;48.520;11.228;2022-07-12T16:33:26;25.30;55.70
12720;DHT22;6424;48.520;11.228;2022-07-12T16:36:07;25.40;55.00
12720;DHT22;6424;48.520;11.228;2022-07-12T16:38:48;25.30;54.90
12720;DHT22;6424;48.520;11.228;2022-07-12T16:41:28;25.30;55.90
12720;DHT22;6424;48.520;11.228;2022-07-12T16:44:09;25.30;56.10
12720;DHT22;6424;48.520;11.228;2022-07-12T16:46:50;25.40;56.90
12720;DHT22;6424;48.520;11.228;2022-07-12T16:49:31;25.60;57.40
12720;DHT22;6424;48.520;11.228;2022-07-12T16:52:11;25.60;55.00
12720;DHT22;6424;48.520;11.228;2022-07-12T16:54:52;25.70;56.20
12720;DHT22;6424;48.520;11.228;2022-07-12T16:57:33;25.70;56.00
12720;DHT22;6424;48.520;11.228;2022-07-12T17:00:14;25.60;55.10
12720;DHT22;6424;48.520;11.228;2022-07-12T17:02:55;25.50;54.80